KCRW

Yeager Airport

Charleston, West Virginia, USA
METAR KCRW 230954Z 00000KT 6SM BR FEW000 BKN100 09/09 A3032 RMK AO2 SLP267 FG FEW000 T00940094
Observed Flight Rules
Feb-23 @ 09:54 UTC (39 minutes ago) Visual Flight Rules
Wind Visibility Clouds Conditions
Calm 6 miles
  • Few
  • Broken at 10,000' AGL
  • Mist
Temperatures Readings
Current 9°C / 48°F
Dewpoint 9°C / 48°F
Humidity 100%
Altimeter 30.32" Hg
Pressure 1026.7 hPa
Elevation 309
METAR KCRW 230954Z 00000KT 6SM BR FEW000 BKN100 09/09 A3032 RMK AO2 SLP267 FG FEW000 T00940094
Observed Flight Rules
Feb-23 @ 09:54 UTC
(39 minutes ago)
VFR
Wind Visibility
Calm 6 miles
Clouds
  • Few
  • Broken at 10,000' AGL
Conditions
  • Mist
Temperature Dewpoint
9°C / 48°F 9°C / 48°F
Humidity Altimeter Pressure
100% 30.32" Hg 1026.7 hPa